Time;durP1;ratioP1;P1;durP2;ratioP2;P2;SDS_P1;SDS_P2;PMS_P1;PMS_P2;Temp;Humidity;BMP_temperature;BMP_pressure;BME280_temperature;BME280_humidity;BME280_pressure;Samples;Min_cycle;Max_cycle;Signal;HPM_P1;HPM_P2
2022/12/11 00:00:23;;;;;;;10.87;5.53;;;;;;;14.63;88.75;95310.25;5127445;27;20691;-75
2022/12/11 00:02:50;;;;;;;13.27;5.43;;;;;;;14.58;88.76;95315.84;5109014;27;20307;-75
2022/12/11 00:05:17;;;;;;;16.33;5.77;;;;;;;14.51;89.59;95314.75;5127282;27;20565;-75
2022/12/11 00:07:44;;;;;;;11.90;5.43;;;;;;;14.33;88.93;95272.09;5127406;27;20217;-74
2022/12/11 00:10:11;;;;;;;16.47;6.90;;;;;;;14.51;89.51;95277.44;5127375;27;20743;-75
2022/12/11 00:12:38;;;;;;;16.60;5.63;;;;;;;14.52;89.35;95266.91;5127403;27;20185;-75
2022/12/11 00:15:05;;;;;;;16.27;5.90;;;;;;;14.43;89.35;95252.09;5108788;28;20237;-74
2022/12/11 00:18:13;;;;;;;16.47;6.90;;;;;;;14.58;88.90;95260.31;5126866;28;20251;-73
2022/12/11 00:21:34;;;;;;;15.77;6.60;;;;;;;14.58;89.03;95261.16;5125958;28;20186;-73
2022/12/11 00:24:15;;;;;;;17.57;5.87;;;;;;;14.53;89.22;95263.31;5126134;28;20185;-74
2022/12/11 00:26:41;;;;;;;18.23;6.63;;;;;;;14.53;89.78;95280.72;5127042;28;20194;-75
2022/12/11 00:29:13;;;;;;;19.70;6.00;;;;;;;14.59;89.55;95280.19;5108839;28;20179;-75
2022/12/11 00:31:41;;;;;;;18.90;7.40;;;;;;;14.58;89.14;95242.91;5127229;28;20749;-74
2022/12/11 00:34:08;;;;;;;19.80;5.97;;;;;;;14.57;89.30;95250.84;5126803;28;20220;-75
2022/12/11 00:36:35;;;;;;;14.73;5.47;;;;;;;14.64;89.11;95264.97;5127684;28;20195;-75
2022/12/11 00:39:03;;;;;;;21.10;6.37;;;;;;;14.68;89.01;95271.56;5126840;28;20189;-75
2022/12/11 00:41:31;;;;;;;26.20;6.27;;;;;;;14.67;89.12;95294.16;5127189;28;20575;-75
2022/12/11 00:43:58;;;;;;;25.87;6.23;;;;;;;14.71;89.29;95275.66;5127029;28;20681;-75
2022/12/11 00:46:25;;;;;;;21.90;6.37;;;;;;;14.68;88.82;95261.97;5127162;28;20183;-77
2022/12/11 00:48:52;;;;;;;16.90;6.13;;;;;;;14.78;88.92;95250.69;5126985;28;20183;-76
2022/12/11 00:51:19;;;;;;;24.93;6.13;;;;;;;14.66;88.92;95226.56;5142673;27;20205;-74
2022/12/11 00:53:46;;;;;;;20.53;6.23;;;;;;;14.86;88.38;95243.03;5127221;28;20191;-74
2022/12/11 00:56:19;;;;;;;17.77;5.63;;;;;;;14.84;88.37;95218.88;5126565;28;20197;-74
2022/12/11 00:58:47;;;;;;;19.50;6.23;;;;;;;14.86;88.52;95219.56;5127037;28;20722;-74
2022/12/11 01:01:18;;;;;;;16.07;5.97;;;;;;;14.88;88.48;95221.03;5126863;28;20231;-74
2022/12/11 01:03:45;;;;;;;25.67;5.93;;;;;;;14.90;88.41;95200.06;5126832;28;20201;-73
2022/12/11 01:06:18;;;;;;;24.30;7.60;;;;;;;14.94;88.33;95194.41;5126704;28;20200;-74
2022/12/11 01:08:46;;;;;;;21.53;5.80;;;;;;;14.92;88.04;95164.25;5126411;28;20195;-74
2022/12/11 01:11:15;;;;;;;22.27;5.83;;;;;;;14.87;88.21;95163.84;5108991;28;20242;-75
2022/12/11 01:13:42;;;;;;;17.30;6.07;;;;;;;14.73;88.40;95112.19;5126410;28;20225;-74
2022/12/11 01:16:12;;;;;;;18.67;5.73;;;;;;;14.91;88.34;95154.78;5127248;28;20183;-74
2022/12/11 01:18:40;;;;;;;18.50;6.07;;;;;;;14.72;88.21;95128.78;5126447;28;20218;-74
2022/12/11 01:21:09;;;;;;;21.53;6.07;;;;;;;14.92;87.79;95159.06;5127229;27;20183;-74
2022/12/11 01:23:37;;;;;;;19.10;5.50;;;;;;;14.94;88.20;95138.88;5112139;27;20194;-74
2022/12/11 01:26:06;;;;;;;16.37;5.90;;;;;;;14.90;88.19;95130.50;5130387;27;20255;-75
2022/12/11 01:28:33;;;;;;;20.17;5.60;;;;;;;14.97;88.01;95143.78;5111740;27;20210;-74
2022/12/11 01:31:00;;;;;;;22.77;5.70;;;;;;;15.02;88.02;95150.22;5130054;27;20186;-75
2022/12/11 01:33:27;;;;;;;20.43;6.03;;;;;;;14.98;88.07;95168.91;5121604;27;20588;-75
2022/12/11 01:35:54;;;;;;;19.33;6.20;;;;;;;15.02;87.95;95155.41;5109843;27;20218;-76
2022/12/11 01:38:21;;;;;;;26.67;5.93;;;;;;;15.00;87.94;95120.84;5129993;27;20301;-74
2022/12/11 01:40:50;;;;;;;16.23;5.00;;;;;;;15.08;87.57;95128.81;5128092;27;20568;-74
2022/12/11 01:43:17;;;;;;;18.13;5.60;;;;;;;15.16;87.17;95128.06;5109930;28;20207;-75
2022/12/11 01:45:47;;;;;;;15.70;5.23;;;;;;;15.15;86.95;95113.38;5109639;28;20658;-75
2022/12/11 01:48:24;;;;;;;21.27;5.43;;;;;;;15.14;86.84;95103.94;5109088;28;20230;-75
2022/12/11 01:51:01;;;;;;;21.30;5.40;;;;;;;15.23;86.32;95118.69;5109428;28;20616;-75
2022/12/11 01:53:39;;;;;;;20.07;5.33;;;;;;;15.30;86.13;95117.16;5109173;28;20186;-74
2022/12/11 01:56:07;;;;;;;17.70;5.10;;;;;;;15.32;85.74;95112.63;5109122;28;20193;-73
2022/12/11 01:58:46;;;;;;;17.33;3.73;;;;;;;15.33;85.42;95098.63;5109116;28;20216;-74
2022/12/11 02:01:21;;;;;;;12.40;4.70;;;;;;;15.42;85.24;95095.13;5109159;28;20198;-74
2022/12/11 02:03:49;;;;;;;15.10;4.17;;;;;;;15.41;84.89;95077.84;5109644;28;20642;-74
2022/12/11 02:06:36;;;;;;;11.97;4.13;;;;;;;15.49;84.60;95072.75;5110891;28;20194;-74
2022/12/11 02:09:06;;;;;;;14.93;3.63;;;;;;;15.48;84.66;95079.72;5112101;28;20190;-74
2022/12/11 02:12:05;;;;;;;13.53;3.20;;;;;;;15.60;84.35;95067.28;5113832;28;20192;-75
2022/12/11 02:14:42;;;;;;;10.80;3.23;;;;;;;15.61;84.04;95032.41;5092796;27;20234;-74
2022/12/11 02:17:32;;;;;;;9.77;3.33;;;;;;;15.75;83.48;95060.59;5129289;27;20194;-73
2022/12/11 02:20:34;;;;;;;7.87;2.70;;;;;;;15.75;83.51;95047.53;5128162;27;20183;-74
2022/12/11 02:23:03;;;;;;;11.33;2.57;;;;;;;15.72;83.61;95033.97;5129022;27;20191;-75
2022/12/11 02:25:37;;;;;;;11.03;2.60;;;;;;;15.69;83.63;95023.81;5129395;27;20670;-73
2022/12/11 02:28:23;;;;;;;8.53;3.20;;;;;;;15.66;83.89;95027.53;5129209;27;20811;-72
2022/12/11 02:30:56;;;;;;;8.40;2.70;;;;;;;15.71;83.93;95042.75;5129446;27;20215;-75
2022/12/11 02:33:33;;;;;;;12.80;3.87;;;;;;;15.64;84.01;95016.44;5129716;27;20186;-74
2022/12/11 02:36:02;;;;;;;6.83;2.60;;;;;;;15.66;83.60;95027.53;5110529;27;20252;-73
2022/12/11 02:38:35;;;;;;;8.23;2.90;;;;;;;15.70;83.70;95021.09;5129524;27;20223;-74
2022/12/11 02:41:04;;;;;;;12.90;3.63;;;;;;;15.77;83.63;95021.28;5129157;27;20199;-73
2022/12/11 02:43:33;;;;;;;11.37;3.00;;;;;;;15.64;83.61;95006.00;5110382;27;20193;-74
2022/12/11 02:46:02;;;;;;;7.17;3.33;;;;;;;15.77;83.80;95016.88;5128934;27;20198;-73
2022/12/11 02:48:31;;;;;;;11.90;3.20;;;;;;;15.76;83.90;95025.69;5128591;27;20236;-73
2022/12/11 02:51:00;;;;;;;12.37;2.90;;;;;;;15.83;83.34;95005.00;5129253;27;20251;-73
2022/12/11 02:53:30;;;;;;;10.37;3.30;;;;;;;15.81;83.43;95023.44;5128471;27;20194;-73
2022/12/11 02:56:11;;;;;;;11.13;3.50;;;;;;;15.71;83.37;95020.09;5128720;27;20196;-73
2022/12/11 02:58:46;;;;;;;13.70;3.27;;;;;;;15.85;83.13;95021.34;5128323;27;20717;-74
2022/12/11 03:01:13;;;;;;;7.83;3.43;;;;;;;15.85;83.28;95011.72;5106384;28;20250;-74
2022/12/11 03:03:41;;;;;;;15.87;3.70;;;;;;;15.86;83.31;95002.94;5108272;28;20188;-74
2022/12/11 03:06:12;;;;;;;9.70;2.77;;;;;;;15.85;83.26;95006.50;5107704;28;20189;-75
2022/12/11 03:08:39;;;;;;;8.53;2.80;;;;;;;15.87;83.11;94995.91;5108321;28;20190;-73
2022/12/11 03:11:10;;;;;;;7.37;2.60;;;;;;;15.94;82.84;95010.00;5107908;28;20188;-76
2022/12/11 03:13:41;;;;;;;12.37;2.60;;;;;;;15.97;82.48;95001.88;5107729;28;20187;-76
2022/12/11 03:16:16;;;;;;;8.73;3.40;;;;;;;15.96;82.72;95011.50;5107708;28;20188;-74
2022/12/11 03:18:57;;;;;;;9.33;2.87;;;;;;;15.95;82.52;95002.00;5107304;28;20234;-75
2022/12/11 03:21:35;;;;;;;8.23;2.80;;;;;;;15.93;83.00;94990.91;5108137;28;20192;-73
2022/12/11 03:24:07;;;;;;;10.83;3.03;;;;;;;15.72;83.22;94971.34;5107432;28;20818;-74
2022/12/11 03:26:41;;;;;;;14.73;2.80;;;;;;;15.87;82.99;94996.72;5107356;28;20192;-74
2022/12/11 03:29:22;;;;;;;6.40;2.40;;;;;;;15.68;83.16;94973.44;5107528;28;20195;-75
2022/12/11 03:31:56;;;;;;;8.37;3.00;;;;;;;15.69;83.29;94980.28;5107376;28;20247;-75
2022/12/11 03:34:29;;;;;;;6.93;3.10;;;;;;;15.93;82.91;95001.34;5107920;28;20188;-73
2022/12/11 03:36:59;;;;;;;10.27;2.63;;;;;;;15.96;82.75;95011.50;5107442;28;20597;-74
2022/12/11 03:39:34;;;;;;;9.20;2.90;;;;;;;15.95;82.96;95002.00;5107517;28;20311;-75
2022/12/11 03:42:06;;;;;;;6.83;2.40;;;;;;;15.90;83.30;94996.44;5107297;28;20191;-75
2022/12/11 03:44:35;;;;;;;7.90;2.40;;;;;;;15.90;82.91;94983.38;5106897;28;20202;-74
2022/12/11 03:47:06;;;;;;;7.77;2.10;;;;;;;15.95;83.08;95007.22;5107524;28;20191;-74
2022/12/11 03:49:39;;;;;;;8.60;2.50;;;;;;;15.89;83.10;95009.66;5107004;28;20701;-74
2022/12/11 03:52:08;;;;;;;6.27;2.00;;;;;;;15.95;82.61;95011.66;5107318;28;20188;-73
2022/12/11 03:54:36;;;;;;;8.17;2.50;;;;;;;15.92;83.36;95010.16;5106901;28;20574;-73
2022/12/11 03:57:06;;;;;;;10.57;2.17;;;;;;;15.86;83.40;95021.22;5106959;28;20188;-73
2022/12/11 03:59:33;;;;;;;7.17;2.60;;;;;;;15.83;83.83;95026.72;5106903;28;20585;-73
2022/12/11 04:02:00;;;;;;;8.23;2.67;;;;;;;15.84;83.63;95015.31;5106954;28;20673;-73
2022/12/11 04:04:27;;;;;;;7.37;2.87;;;;;;;15.70;83.59;95005.44;5107273;28;20248;-74
2022/12/11 04:06:54;;;;;;;9.07;2.60;;;;;;;15.88;83.57;95032.31;5106796;28;20180;-73
2022/12/11 04:09:20;;;;;;;10.17;2.87;;;;;;;15.80;83.43;95015.78;5107317;28;20206;-73
2022/12/11 04:11:47;;;;;;;10.60;2.80;;;;;;;15.92;83.28;95015.38;5106854;28;20283;-73
2022/12/11 04:24:14;;;;;;;10.30;3.57;;;;;;;15.94;83.20;95020.44;5063909;28;20222;-73
2022/12/11 04:25:51;;;;;;;13.93;4.40;;;;;;;15.95;83.51;95001.22;5107018;28;20213;-74
2022/12/11 04:28:18;;;;;;;9.17;4.80;;;;;;;15.94;83.24;94997.78;5106203;28;20264;-73
2022/12/11 04:30:48;;;;;;;14.40;3.93;;;;;;;15.95;83.19;95004.63;5107196;28;20190;-73
2022/12/11 04:33:15;;;;;;;8.97;3.17;;;;;;;16.02;83.31;95016.09;5088535;28;20241;-74
2022/12/11 04:35:42;;;;;;;12.30;3.13;;;;;;;15.92;83.26;95025.00;5106741;28;20183;-75
2022/12/11 04:38:09;;;;;;;9.00;3.30;;;;;;;16.05;82.88;95030.66;5106440;28;20224;-75
2022/12/11 04:40:36;;;;;;;10.60;3.30;;;;;;;15.94;83.33;95023.88;5106726;28;20180;-73
2022/12/11 04:43:03;;;;;;;16.73;3.83;;;;;;;15.86;83.23;95033.44;5106747;28;20191;-74
2022/12/11 04:45:30;;;;;;;9.23;3.77;;;;;;;15.90;83.48;95043.44;5106317;28;20195;-74
2022/12/11 04:47:57;;;;;;;12.00;3.07;;;;;;;15.83;83.53;95042.38;5106797;28;20180;-73
2022/12/11 04:50:24;;;;;;;10.17;2.90;;;;;;;15.54;83.88;95013.09;5106322;28;20184;-74
2022/12/11 04:52:55;;;;;;;12.20;3.27;;;;;;;15.78;83.96;95039.41;5106644;28;20192;-72
2022/12/11 04:55:23;;;;;;;16.30;3.23;;;;;;;15.76;84.19;95046.56;5071022;28;20192;-74
2022/12/11 04:57:50;;;;;;;10.70;3.80;;;;;;;15.66;84.51;95058.06;5090609;28;20209;-73
2022/12/11 05:00:16;;;;;;;11.83;4.50;;;;;;;15.71;84.42;95043.59;5124360;27;20188;-74
2022/12/11 05:02:43;;;;;;;10.63;3.70;;;;;;;15.71;83.97;95012.28;5131044;27;20229;-74
2022/12/11 05:05:10;;;;;;;9.57;3.80;;;;;;;15.75;83.91;95024.03;5131171;27;20179;-74
2022/12/11 05:07:38;;;;;;;12.93;3.77;;;;;;;15.76;84.12;95033.53;5130609;27;20209;-74
2022/12/11 05:10:05;;;;;;;12.73;3.80;;;;;;;15.73;84.18;95031.22;5130905;27;20758;-73
2022/12/11 05:12:32;;;;;;;12.73;3.40;;;;;;;15.75;84.24;95037.09;5130631;27;20575;-74
2022/12/11 05:14:59;;;;;;;13.10;3.50;;;;;;;15.72;84.13;95053.06;5130362;27;21031;-73
2022/12/11 05:17:27;;;;;;;18.13;4.13;;;;;;;15.74;84.02;95053.75;5130431;27;20191;-73
2022/12/11 05:19:54;;;;;;;13.47;3.50;;;;;;;15.71;83.93;95046.19;5130108;27;20218;-74
2022/12/11 05:22:21;;;;;;;19.60;5.60;;;;;;;15.74;84.33;95077.22;5130763;27;20186;-74
2022/12/11 05:24:47;;;;;;;11.47;3.90;;;;;;;15.77;84.11;95083.91;5130290;27;20202;-72
2022/12/11 05:27:14;;;;;;;11.83;4.00;;;;;;;15.81;83.63;95074.81;5146271;27;20206;-74
2022/12/11 05:29:41;;;;;;;13.80;3.90;;;;;;;15.77;83.49;95076.91;5130423;27;20190;-74
2022/12/11 05:32:08;;;;;;;14.40;3.47;;;;;;;15.80;83.62;95067.97;5112291;27;20195;-74
2022/12/11 05:34:35;;;;;;;11.00;3.17;;;;;;;15.80;83.08;95067.97;5130244;27;20687;-73
2022/12/11 05:37:02;;;;;;;9.40;3.43;;;;;;;15.80;83.41;95074.03;5130130;27;20179;-74
2022/12/11 05:39:29;;;;;;;12.40;3.70;;;;;;;15.70;84.12;95082.88;5130318;27;20776;-75
2022/12/11 05:41:56;;;;;;;10.47;3.20;;;;;;;15.75;82.95;95086.69;5130037;27;20208;-75
2022/12/11 05:44:23;;;;;;;11.17;3.63;;;;;;;15.86;82.88;95089.06;5130445;27;20267;-74
2022/12/11 05:46:50;;;;;;;14.87;4.03;;;;;;;15.83;83.39;95088.53;5129932;27;20188;-75
2022/12/11 05:49:17;;;;;;;12.70;2.87;;;;;;;15.93;82.03;95089.31;5130099;27;20228;-75
2022/12/11 05:51:46;;;;;;;9.00;3.10;;;;;;;15.88;82.29;95096.75;5129760;27;20179;-74
2022/12/11 05:54:13;;;;;;;12.13;3.47;;;;;;;15.85;82.79;95097.88;5129748;27;20653;-74
2022/12/11 05:56:40;;;;;;;13.07;4.00;;;;;;;15.84;82.56;95096.25;5129915;27;20269;-75
2022/12/11 05:59:08;;;;;;;15.57;3.83;;;;;;;15.82;82.62;95108.63;5129552;27;20231;-75
2022/12/11 06:01:38;;;;;;;15.27;4.70;;;;;;;15.82;82.85;95113.84;5130147;27;20191;-73
2022/12/11 06:04:07;;;;;;;16.80;4.80;;;;;;;15.83;83.15;95115.47;5129526;27;20260;-75
2022/12/11 06:06:35;;;;;;;10.43;4.30;;;;;;;15.79;83.15;95111.50;5129583;27;20187;-75
2022/12/11 06:09:03;;;;;;;10.73;4.53;;;;;;;15.88;82.96;95112.41;5129060;27;20184;-71
2022/12/11 06:11:32;;;;;;;12.63;5.00;;;;;;;15.82;82.98;95113.00;5110984;27;20188;-72
2022/12/11 06:14:01;;;;;;;17.17;5.30;;;;;;;15.77;83.30;95108.22;5129453;27;20272;-72
2022/12/11 06:16:29;;;;;;;12.63;4.97;;;;;;;15.80;82.78;95104.50;5129265;27;20197;-73
2022/12/11 06:18:56;;;;;;;9.60;4.43;;;;;;;15.81;83.01;95116.56;5129594;27;20217;-75
2022/12/11 06:21:28;;;;;;;17.43;5.43;;;;;;;15.89;82.88;95129.72;5129368;27;20682;-77
2022/12/11 06:27:31;;;;;;;10.80;3.77;;;;;;;15.81;83.20;95137.47;5105517;27;20260;-75
2022/12/11 06:29:58;;;;;;;14.17;4.73;;;;;;;15.79;83.64;95149.84;5129227;27;20207;-71
2022/12/11 06:32:25;;;;;;;9.60;4.37;;;;;;;15.83;83.28;95154.63;5110799;27;20194;-73
2022/12/11 06:34:52;;;;;;;14.20;5.03;;;;;;;15.86;83.11;95161.34;5128783;27;20211;-72
2022/12/11 06:37:19;;;;;;;9.40;3.73;;;;;;;15.81;83.35;95174.00;5110673;27;20207;-74
2022/12/11 06:39:46;;;;;;;20.43;5.47;;;;;;;15.82;83.34;95181.72;5128605;27;21007;-74
2022/12/11 06:42:13;;;;;;;12.03;5.43;;;;;;;15.80;83.56;95178.44;5128752;27;20777;-72
2022/12/11 06:44:40;;;;;;;9.43;3.87;;;;;;;15.87;83.52;95179.47;5128801;27;20191;-72
2022/12/11 06:47:07;;;;;;;6.40;3.07;;;;;;;15.72;83.75;95175.72;5128727;27;20194;-72
2022/12/11 06:49:34;;;;;;;7.13;3.23;;;;;;;15.80;83.45;95182.81;5129125;27;20678;-72
2022/12/11 06:52:01;;;;;;;8.87;3.13;;;;;;;15.61;83.56;95157.66;5128214;27;20218;-72
2022/12/11 06:54:28;;;;;;;12.13;3.37;;;;;;;15.75;83.58;95178.03;5128807;27;20285;-72
2022/12/11 06:56:55;;;;;;;8.93;3.20;;;;;;;15.83;83.42;95188.56;5128261;27;20187;-73
2022/12/11 06:59:21;;;;;;;17.23;8.30;;;;;;;15.86;83.67;95175.22;5122805;27;20223;-76
2022/12/11 07:01:48;;;;;;;14.57;4.07;;;;;;;15.89;82.92;95156.63;5109785;27;20180;-72
2022/12/11 07:04:16;;;;;;;14.13;4.40;;;;;;;16.00;82.71;95163.44;5128365;27;20214;-72
2022/12/11 07:06:43;;;;;;;14.67;4.40;;;;;;;15.86;82.43;95171.78;5128515;27;20298;-73
2022/12/11 07:09:10;;;;;;;11.33;4.87;;;;;;;15.94;82.40;95169.25;5092639;27;20184;-73
2022/12/11 07:11:39;;;;;;;14.17;4.80;;;;;;;16.15;81.70;95177.63;5129978;27;20187;-74
2022/12/11 07:14:07;;;;;;;11.10;4.77;;;;;;;16.10;81.69;95165.00;5128317;27;20234;-73
2022/12/11 07:16:35;;;;;;;9.40;3.70;;;;;;;15.94;81.99;95153.59;5129863;27;20191;-73
2022/12/11 07:19:02;;;;;;;10.33;3.90;;;;;;;16.00;81.69;95153.81;5109579;28;20278;-73
2022/12/11 07:21:29;;;;;;;11.13;4.33;;;;;;;15.99;81.72;95151.38;5128014;27;20221;-75
2022/12/11 07:23:56;;;;;;;9.00;2.90;;;;;;;15.99;81.98;95153.97;5129704;27;20195;-74
2022/12/11 07:26:23;;;;;;;10.00;3.70;;;;;;;15.89;82.17;95145.41;5107026;27;20568;-75
2022/12/11 07:28:50;;;;;;;15.37;4.07;;;;;;;15.98;81.85;95160.97;5127577;27;20588;-73
2022/12/11 07:31:21;;;;;;;9.47;3.50;;;;;;;16.04;81.83;95168.22;5127055;27;20179;-77
2022/12/11 07:33:53;;;;;;;9.23;3.30;;;;;;;16.16;80.63;95159.19;5125763;27;20244;-74
2022/12/11 07:36:21;;;;;;;10.80;3.50;;;;;;;16.42;79.82;95174.09;5127193;27;20658;-74
2022/12/11 07:38:49;;;;;;;7.13;2.80;;;;;;;16.31;80.14;95180.38;5108959;27;20246;-75
2022/12/11 07:41:16;;;;;;;5.70;2.70;;;;;;;16.27;79.61;95179.88;5127127;27;20222;-75
2022/12/11 07:43:55;;;;;;;9.70;2.90;;;;;;;16.28;79.67;95157.97;5108166;27;20273;-79
2022/12/11 07:46:36;;;;;;;8.97;2.93;;;;;;;16.59;78.95;95189.78;5125557;27;20206;-74
2022/12/11 07:49:05;;;;;;;4.73;2.83;;;;;;;16.78;78.01;95196.63;5123869;27;20227;-76
2022/12/11 07:51:34;;;;;;;10.60;3.83;;;;;;;16.87;77.82;95190.47;5127798;27;20191;-74
2022/12/11 07:54:09;;;;;;;13.87;3.43;;;;;;;16.88;77.44;95198.16;5107831;27;21101;-77
2022/12/11 07:56:36;;;;;;;8.03;2.90;;;;;;;16.83;77.29;95160.38;5127422;27;20195;-74
2022/12/11 07:59:04;;;;;;;9.97;2.87;;;;;;;17.14;76.69;95189.50;5120821;27;20214;-76
2022/12/11 08:01:36;;;;;;;6.57;2.70;;;;;;;17.28;75.56;95191.53;5126559;27;20191;-78
2022/12/11 08:04:06;;;;;;;7.43;4.00;;;;;;;17.22;75.48;95189.53;5097328;27;20187;-75
2022/12/11 08:06:37;;;;;;;8.17;2.63;;;;;;;17.24;75.19;95188.41;5127469;27;20218;-74
2022/12/11 08:09:09;;;;;;;10.57;2.97;;;;;;;17.10;75.93;95196.84;5124264;27;20188;-74
2022/12/11 08:11:39;;;;;;;8.10;3.03;;;;;;;17.05;75.88;95197.31;5090455;27;20191;-75
2022/12/11 08:14:07;;;;;;;8.80;4.47;;;;;;;17.01;76.01;95197.75;5124159;27;20703;-75
2022/12/11 08:16:35;;;;;;;9.83;4.33;;;;;;;17.11;75.44;95193.25;5126145;27;20708;-74
2022/12/11 08:19:04;;;;;;;8.07;4.10;;;;;;;17.18;75.82;95194.28;5126443;28;20226;-73
2022/12/11 08:21:31;;;;;;;7.13;3.20;;;;;;;16.79;76.07;95143.38;5127060;28;20180;-76
2022/12/11 08:23:58;;;;;;;5.93;3.00;;;;;;;17.08;76.04;95193.56;5107738;28;20175;-74
2022/12/11 08:26:28;;;;;;;7.93;3.23;;;;;;;17.05;76.40;95186.00;5127191;28;20223;-75
2022/12/11 08:28:55;;;;;;;9.93;3.60;;;;;;;17.05;76.50;95176.38;5126108;28;20187;-75
2022/12/11 08:31:23;;;;;;;7.53;3.23;;;;;;;16.94;76.84;95197.53;5129493;27;20187;-75
2022/12/11 08:33:50;;;;;;;8.30;4.30;;;;;;;17.06;76.24;95187.66;5112013;27;20201;-73
2022/12/11 08:36:20;;;;;;;8.33;4.63;;;;;;;17.27;75.75;95185.47;5130976;27;20226;-73
2022/12/11 08:38:49;;;;;;;11.10;5.30;;;;;;;17.38;75.17;95171.31;5130654;27;20206;-74
2022/12/11 08:41:19;;;;;;;13.43;5.23;;;;;;;17.36;74.82;95163.63;5112302;27;20209;-73
2022/12/11 08:43:47;;;;;;;11.50;5.97;;;;;;;17.55;74.87;95183.50;5131082;27;20194;-75
2022/12/11 08:46:16;;;;;;;11.40;5.73;;;;;;;17.41;74.21;95142.22;5130460;27;20571;-74
2022/12/11 08:48:43;;;;;;;12.33;4.50;;;;;;;17.53;74.00;95173.22;5112814;27;20192;-75
2022/12/11 08:51:13;;;;;;;6.23;4.20;;;;;;;17.48;73.74;95167.59;5105163;27;20245;-74
2022/12/11 08:53:40;;;;;;;11.87;3.93;;;;;;;17.44;73.20;95145.31;5117600;27;20238;-74
2022/12/11 08:56:13;;;;;;;5.50;3.20;;;;;;;17.31;73.84;95134.47;5115204;27;20196;-73
2022/12/11 08:58:42;;;;;;;6.17;3.70;;;;;;;17.53;73.59;95140.97;5128560;27;20204;-73
2022/12/11 09:01:14;;;;;;;7.73;4.00;;;;;;;17.81;72.41;95143.19;5128161;27;20193;-76
2022/12/11 09:03:41;;;;;;;8.80;4.67;;;;;;;18.02;72.01;95147.13;5118439;27;20732;-72
2022/12/11 09:06:10;;;;;;;8.87;4.10;;;;;;;18.12;71.63;95158.28;5130918;27;20192;-76
2022/12/11 09:08:38;;;;;;;13.30;4.47;;;;;;;17.94;71.71;95121.75;5145724;27;20203;-75
2022/12/11 09:11:07;;;;;;;8.33;4.13;;;;;;;17.91;71.89;95155.31;5111129;27;20189;-73
2022/12/11 09:13:35;;;;;;;7.33;3.47;;;;;;;18.07;71.67;95166.66;5090074;28;20640;-73
2022/12/11 09:16:04;;;;;;;12.30;5.17;;;;;;;18.16;71.41;95170.09;5115411;27;20214;-75
2022/12/11 09:18:31;;;;;;;8.10;4.23;;;;;;;18.29;71.22;95180.91;5130277;27;20189;-73
2022/12/11 09:21:03;;;;;;;9.10;3.47;;;;;;;18.13;70.33;95162.56;5129623;27;20228;-73
2022/12/11 09:23:31;;;;;;;10.53;5.70;;;;;;;18.20;70.22;95156.50;5130463;27;20278;-75
2022/12/11 09:25:58;;;;;;;8.20;3.70;;;;;;;18.21;69.93;95142.44;5130014;27;20246;-77
2022/12/11 09:28:25;;;;;;;11.33;3.77;;;;;;;18.56;68.60;95152.63;5130645;27;20277;-74
2022/12/11 09:30:52;;;;;;;9.40;3.83;;;;;;;18.67;67.12;95149.66;5129594;27;20211;-75
2022/12/11 09:33:19;;;;;;;10.57;3.20;;;;;;;18.77;66.43;95152.13;5129739;27;20984;-77
2022/12/11 09:35:56;;;;;;;11.70;3.83;;;;;;;18.82;65.17;95139.31;5129935;27;20186;-74
2022/12/11 09:38:23;;;;;;;11.23;3.73;;;;;;;18.89;63.60;95140.28;5129428;27;20560;-75
2022/12/11 09:40:50;;;;;;;4.03;2.20;;;;;;;19.02;62.84;95152.91;5129283;27;20235;-74
2022/12/11 09:43:39;;;;;;;7.50;3.00;;;;;;;18.91;64.35;95146.19;5128025;27;20707;-77
2022/12/11 09:46:13;;;;;;;11.30;4.47;;;;;;;19.07;65.08;95156.66;5110942;27;20191;-76
2022/12/11 09:48:47;;;;;;;12.90;4.63;;;;;;;19.06;65.07;95128.75;5091437;27;20279;-74
2022/12/11 09:51:41;;;;;;;18.13;5.53;;;;;;;18.95;65.14;95099.44;5060464;28;20685;-71
2022/12/11 09:54:12;;;;;;;15.33;4.83;;;;;;;18.99;64.74;95134.84;5109502;28;20341;-74
2022/12/11 09:56:51;;;;;;;120.33;107.33;;;;;;;19.13;60.93;95121.84;5115255;27;20708;-75
2022/12/11 09:59:21;;;;;;;139.07;81.53;;;;;;;19.37;59.66;95127.03;5129342;27;20285;-76
2022/12/11 10:02:00;;;;;;;1251.73;682.90;;;;;;;19.58;61.21;95121.22;5129288;27;20190;-72
2022/12/11 10:04:44;;;;;;;1596.17;875.33;;;;;;;19.62;60.73;95079.69;5093436;27;20654;-74
2022/12/11 10:07:21;;;;;;;1999.90;999.90;;;;;;;19.91;60.41;95113.97;5129603;27;20276;-73
2022/12/11 10:09:56;;;;;;;1999.90;934.93;;;;;;;19.96;58.34;95094.09;5128608;27;20194;-75
2022/12/11 10:12:28;;;;;;;756.73;479.07;;;;;;;20.15;56.05;95090.16;5129112;27;20693;-71
2022/12/11 10:15:10;;;;;;;945.47;580.27;;;;;;;20.01;55.30;95098.81;5128781;27;20242;-75
2022/12/11 10:17:42;;;;;;;810.23;528.50;;;;;;;20.06;54.82;95104.34;5129112;27;20544;-75
2022/12/11 10:20:38;;;;;;;1738.13;925.40;;;;;;;20.05;56.93;95100.09;5128073;27;20218;-78
2022/12/11 10:23:07;;;;;;;330.70;232.43;;;;;;;19.99;56.89;95093.72;5128657;27;20195;-73
2022/12/11 10:25:39;;;;;;;24.50;12.70;;;;;;;19.99;54.95;95101.59;5110211;27;20198;-74
2022/12/11 10:28:15;;;;;;;5.37;3.20;;;;;;;19.70;59.60;95105.91;5076553;27;20285;-74
2022/12/11 10:31:10;;;;;;;8.33;3.23;;;;;;;19.46;63.05;95099.78;5128224;27;20602;-74
2022/12/11 10:34:00;;;;;;;9.97;3.67;;;;;;;19.33;63.56;95099.50;5129188;27;20572;-74
2022/12/11 10:36:34;;;;;;;12.20;3.63;;;;;;;18.80;65.72;95095.88;5127968;27;20198;-73
2022/12/11 10:39:02;;;;;;;9.67;3.33;;;;;;;18.60;66.69;95103.28;5128405;27;20189;-75
2022/12/11 10:41:37;;;;;;;10.27;4.00;;;;;;;18.69;66.67;95089.19;5128742;27;20196;-76
2022/12/11 10:44:18;;;;;;;9.63;3.57;;;;;;;18.71;66.54;95102.97;5128162;27;20237;-75
2022/12/11 10:46:47;;;;;;;9.33;3.90;;;;;;;18.49;67.21;95083.47;5128818;27;20197;-74
2022/12/11 10:49:28;;;;;;;7.70;3.43;;;;;;;18.57;66.79;95095.75;5109441;27;20213;-74
2022/12/11 10:52:00;;;;;;;7.40;2.87;;;;;;;18.25;66.90;95086.09;5128142;27;20187;-75
2022/12/11 10:54:47;;;;;;;12.23;3.30;;;;;;;18.47;66.71;95105.59;5127486;27;20248;-75
2022/12/11 10:57:14;;;;;;;11.00;4.10;;;;;;;18.34;67.04;95092.94;5127770;27;20185;-77
2022/12/11 10:59:41;;;;;;;11.53;4.00;;;;;;;18.33;66.93;95098.38;5095714;28;20226;-75
2022/12/11 11:02:23;;;;;;;8.53;4.37;;;;;;;18.31;66.85;95089.84;5107127;28;20186;-75
2022/12/11 11:04:52;;;;;;;13.17;3.70;;;;;;;18.18;67.25;95077.25;5107416;28;20180;-74
2022/12/11 11:07:26;;;;;;;11.73;4.10;;;;;;;18.19;67.85;95078.91;5107783;28;20182;-74
2022/12/11 11:10:11;;;;;;;12.83;5.27;;;;;;;18.30;67.47;95083.00;5088793;28;20185;-73
2022/12/11 11:12:46;;;;;;;12.00;5.37;;;;;;;18.36;67.35;95066.59;5107899;28;20229;-75
2022/12/11 11:15:27;;;;;;;11.87;5.03;;;;;;;18.39;67.00;95061.84;5106685;28;20241;-73
2022/12/11 11:18:08;;;;;;;10.33;3.77;;;;;;;18.41;66.78;95056.41;5107061;28;20649;-74
2022/12/11 11:20:46;;;;;;;9.37;3.20;;;;;;;18.44;66.38;95058.75;5072576;28;20225;-75
2022/12/11 11:23:18;;;;;;;7.03;2.87;;;;;;;18.39;66.40;95050.53;5106738;28;20685;-73
2022/12/11 11:25:59;;;;;;;7.97;3.37;;;;;;;18.31;66.85;95055.78;5107649;28;20470;-74
2022/12/11 11:28:29;;;;;;;8.13;3.00;;;;;;;18.35;66.60;95057.09;5107298;28;20224;-72
2022/12/11 11:31:04;;;;;;;10.43;3.27;;;;;;;18.43;66.24;95057.94;5106768;28;20269;-72
2022/12/11 11:33:34;;;;;;;10.00;3.57;;;;;;;18.51;65.23;95034.31;5107046;28;20194;-73
2022/12/11 11:36:04;;;;;;;12.87;4.33;;;;;;;18.73;65.39;95031.97;5106730;28;20601;-73
2022/12/11 11:38:43;;;;;;;11.03;4.77;;;;;;;18.72;66.07;95041.66;5089339;28;20666;-73
2022/12/11 11:41:40;;;;;;;14.10;4.30;;;;;;;18.80;65.70;95038.16;5106654;28;20750;-73
2022/12/11 11:44:11;;;;;;;7.57;3.97;;;;;;;18.74;65.32;95044.91;5107013;28;20195;-74
2022/12/11 11:46:48;;;;;;;11.20;3.37;;;;;;;18.89;65.37;95045.88;5108690;28;20183;-75
2022/12/11 11:49:24;;;;;;;6.33;3.40;;;;;;;18.81;65.15;95056.38;5123382;27;20602;-77
2022/12/11 11:52:12;;;;;;;10.37;4.40;;;;;;;18.80;65.28;95054.72;5107613;28;20196;-74
2022/12/11 11:55:04;;;;;;;8.33;3.03;;;;;;;18.75;65.23;95051.00;5106729;28;20670;-73
2022/12/11 11:57:41;;;;;;;6.27;2.80;;;;;;;18.59;65.84;95028.22;5106924;28;20239;-74